sensor_id;sensor_type;location;lat;lon;timestamp;temperature;humidity
62555;DHT22;48610;52.144;8.624;2024-01-07T00:01:39;2.90;99.90
62555;DHT22;48610;52.144;8.624;2024-01-07T00:04:40;3.10;99.90
62555;DHT22;48610;52.144;8.624;2024-01-07T00:07:41;2.40;99.90
62555;DHT22;48610;52.144;8.624;2024-01-07T00:10:41;2.60;99.90
62555;DHT22;48610;52.144;8.624;2024-01-07T00:13:42;2.40;99.90
62555;DHT22;48610;52.144;8.624;2024-01-07T00:16:43;2.20;99.90
62555;DHT22;48610;52.144;8.624;2024-01-07T00:19:43;2.20;99.90
62555;DHT22;48610;52.144;8.624;2024-01-07T00:22:44;2.10;99.90
62555;DHT22;48610;52.144;8.624;2024-01-07T00:25:44;2.30;99.90
62555;DHT22;48610;52.144;8.624;2024-01-07T00:28:45;2.20;99.90
62555;DHT22;48610;52.144;8.624;2024-01-07T00:31:45;1.90;99.90
62555;DHT22;48610;52.144;8.624;2024-01-07T00:34:45;2.20;99.90
62555;DHT22;48610;52.144;8.624;2024-01-07T00:37:46;2.50;99.90
62555;DHT22;48610;52.144;8.624;2024-01-07T00:40:47;2.50;99.90
62555;DHT22;48610;52.144;8.624;2024-01-07T00:43:47;2.60;99.90
62555;DHT22;48610;52.144;8.624;2024-01-07T00:46:48;2.60;99.90
62555;DHT22;48610;52.144;8.624;2024-01-07T00:49:48;2.30;99.90
62555;DHT22;48610;52.144;8.624;2024-01-07T00:52:49;2.30;99.90
62555;DHT22;48610;52.144;8.624;2024-01-07T00:55:50;2.50;99.90
62555;DHT22;48610;52.144;8.624;2024-01-07T00:58:50;2.70;99.90
62555;DHT22;48610;52.144;8.624;2024-01-07T01:01:51;2.40;99.90
62555;DHT22;48610;52.144;8.624;2024-01-07T01:04:51;2.30;99.90
62555;DHT22;48610;52.144;8.624;2024-01-07T01:07:52;2.30;99.90
62555;DHT22;48610;52.144;8.624;2024-01-07T01:10:52;2.60;99.90
62555;DHT22;48610;52.144;8.624;2024-01-07T01:13:53;2.60;99.90
62555;DHT22;48610;52.144;8.624;2024-01-07T01:16:53;2.30;99.90
62555;DHT22;48610;52.144;8.624;2024-01-07T01:19:54;2.30;99.90
62555;DHT22;48610;52.144;8.624;2024-01-07T01:22:54;2.20;99.90
62555;DHT22;48610;52.144;8.624;2024-01-07T01:25:55;2.30;99.90
62555;DHT22;48610;52.144;8.624;2024-01-07T01:28:55;2.00;99.90
62555;DHT22;48610;52.144;8.624;2024-01-07T01:31:56;2.00;99.90
62555;DHT22;48610;52.144;8.624;2024-01-07T01:34:57;2.20;99.90
62555;DHT22;48610;52.144;8.624;2024-01-07T01:37:58;2.40;99.90
62555;DHT22;48610;52.144;8.624;2024-01-07T01:40:58;2.40;99.90
62555;DHT22;48610;52.144;8.624;2024-01-07T01:43:59;2.30;99.90
62555;DHT22;48610;52.144;8.624;2024-01-07T01:47:00;1.90;99.90
62555;DHT22;48610;52.144;8.624;2024-01-07T01:50:02;2.10;99.90
62555;DHT22;48610;52.144;8.624;2024-01-07T01:53:02;2.10;99.90
62555;DHT22;48610;52.144;8.624;2024-01-07T01:56:03;2.30;99.90
62555;DHT22;48610;52.144;8.624;2024-01-07T01:59:04;2.20;99.90
62555;DHT22;48610;52.144;8.624;2024-01-07T02:02:04;2.10;99.90
62555;DHT22;48610;52.144;8.624;2024-01-07T02:05:05;1.80;99.90
62555;DHT22;48610;52.144;8.624;2024-01-07T02:08:06;1.80;99.90
62555;DHT22;48610;52.144;8.624;2024-01-07T02:11:18;1.80;99.90
62555;DHT22;48610;52.144;8.624;2024-01-07T02:14:19;1.90;99.90
62555;DHT22;48610;52.144;8.624;2024-01-07T02:17:20;2.20;99.90
62555;DHT22;48610;52.144;8.624;2024-01-07T02:20:20;1.70;99.90
62555;DHT22;48610;52.144;8.624;2024-01-07T02:23:21;1.80;99.90
62555;DHT22;48610;52.144;8.624;2024-01-07T02:26:21;1.70;99.90
62555;DHT22;48610;52.144;8.624;2024-01-07T02:29:22;1.80;99.90
62555;DHT22;48610;52.144;8.624;2024-01-07T02:32:22;2.00;99.90
62555;DHT22;48610;52.144;8.624;2024-01-07T02:35:23;1.90;99.90
62555;DHT22;48610;52.144;8.624;2024-01-07T02:38:23;2.20;99.90
62555;DHT22;48610;52.144;8.624;2024-01-07T02:41:24;2.20;99.90
62555;DHT22;48610;52.144;8.624;2024-01-07T02:44:26;2.10;99.90
62555;DHT22;48610;52.144;8.624;2024-01-07T02:47:27;1.90;99.90
62555;DHT22;48610;52.144;8.624;2024-01-07T02:50:28;1.90;99.90
62555;DHT22;48610;52.144;8.624;2024-01-07T02:53:28;1.60;99.90
62555;DHT22;48610;52.144;8.624;2024-01-07T02:56:29;1.90;99.90
62555;DHT22;48610;52.144;8.624;2024-01-07T02:59:29;2.00;99.90
62555;DHT22;48610;52.144;8.624;2024-01-07T03:02:30;2.30;99.90
62555;DHT22;48610;52.144;8.624;2024-01-07T03:05:30;2.20;99.90
62555;DHT22;48610;52.144;8.624;2024-01-07T03:08:33;2.40;99.90
62555;DHT22;48610;52.144;8.624;2024-01-07T03:11:33;2.50;99.90
62555;DHT22;48610;52.144;8.624;2024-01-07T03:14:40;2.60;99.90
62555;DHT22;48610;52.144;8.624;2024-01-07T03:17:41;2.60;99.90
62555;DHT22;48610;52.144;8.624;2024-01-07T03:20:41;2.40;99.90
62555;DHT22;48610;52.144;8.624;2024-01-07T03:23:42;2.20;99.90
62555;DHT22;48610;52.144;8.624;2024-01-07T03:26:42;2.10;99.90
62555;DHT22;48610;52.144;8.624;2024-01-07T03:29:43;2.10;99.90
62555;DHT22;48610;52.144;8.624;2024-01-07T03:32:43;2.00;99.90
62555;DHT22;48610;52.144;8.624;2024-01-07T03:35:44;1.50;99.90
62555;DHT22;48610;52.144;8.624;2024-01-07T03:38:46;1.60;99.90
62555;DHT22;48610;52.144;8.624;2024-01-07T03:41:46;1.50;99.90
62555;DHT22;48610;52.144;8.624;2024-01-07T03:44:47;1.30;99.90
62555;DHT22;48610;52.144;8.624;2024-01-07T03:47:47;1.00;99.90
62555;DHT22;48610;52.144;8.624;2024-01-07T03:50:48;1.30;99.90
62555;DHT22;48610;52.144;8.624;2024-01-07T03:53:48;1.80;99.90
62555;DHT22;48610;52.144;8.624;2024-01-07T03:56:49;2.10;99.90
62555;DHT22;48610;52.144;8.624;2024-01-07T03:59:49;1.80;99.90
62555;DHT22;48610;52.144;8.624;2024-01-07T04:02:50;1.60;99.90
62555;DHT22;48610;52.144;8.624;2024-01-07T04:05:50;1.80;99.90
62555;DHT22;48610;52.144;8.624;2024-01-07T04:08:51;1.90;99.90
62555;DHT22;48610;52.144;8.624;2024-01-07T04:11:51;1.80;99.90
62555;DHT22;48610;52.144;8.624;2024-01-07T04:14:52;1.80;99.90
62555;DHT22;48610;52.144;8.624;2024-01-07T04:17:52;1.30;99.90
62555;DHT22;48610;52.144;8.624;2024-01-07T04:20:53;1.30;99.90
62555;DHT22;48610;52.144;8.624;2024-01-07T04:23:53;1.30;99.90
62555;DHT22;48610;52.144;8.624;2024-01-07T04:26:54;1.20;99.90
62555;DHT22;48610;52.144;8.624;2024-01-07T04:29:54;1.40;99.90
62555;DHT22;48610;52.144;8.624;2024-01-07T04:32:55;0.80;99.90
62555;DHT22;48610;52.144;8.624;2024-01-07T04:35:55;1.10;99.90
62555;DHT22;48610;52.144;8.624;2024-01-07T04:39:01;1.10;99.90
62555;DHT22;48610;52.144;8.624;2024-01-07T04:42:02;1.40;99.90
62555;DHT22;48610;52.144;8.624;2024-01-07T04:45:03;1.50;99.90
62555;DHT22;48610;52.144;8.624;2024-01-07T04:48:04;1.30;99.90
62555;DHT22;48610;52.144;8.624;2024-01-07T04:51:05;1.50;99.90
62555;DHT22;48610;52.144;8.624;2024-01-07T04:54:05;1.70;99.90
62555;DHT22;48610;52.144;8.624;2024-01-07T04:57:08;1.60;99.90
62555;DHT22;48610;52.144;8.624;2024-01-07T05:00:10;1.40;99.90
62555;DHT22;48610;52.144;8.624;2024-01-07T05:03:10;1.50;99.90
62555;DHT22;48610;52.144;8.624;2024-01-07T05:06:11;1.40;99.90
62555;DHT22;48610;52.144;8.624;2024-01-07T05:09:11;1.60;99.90
62555;DHT22;48610;52.144;8.624;2024-01-07T05:12:12;1.70;99.90
62555;DHT22;48610;52.144;8.624;2024-01-07T05:15:13;1.50;99.90
62555;DHT22;48610;52.144;8.624;2024-01-07T05:18:13;1.60;99.90
62555;DHT22;48610;52.144;8.624;2024-01-07T05:21:18;1.70;99.90
62555;DHT22;48610;52.144;8.624;2024-01-07T05:24:19;1.40;99.90
62555;DHT22;48610;52.144;8.624;2024-01-07T05:27:19;1.40;99.90
62555;DHT22;48610;52.144;8.624;2024-01-07T05:30:20;1.10;99.90
62555;DHT22;48610;52.144;8.624;2024-01-07T05:33:20;1.40;99.90
62555;DHT22;48610;52.144;8.624;2024-01-07T05:36:21;1.50;99.90
62555;DHT22;48610;52.144;8.624;2024-01-07T05:39:22;1.10;99.90
62555;DHT22;48610;52.144;8.624;2024-01-07T05:42:22;1.00;99.90
62555;DHT22;48610;52.144;8.624;2024-01-07T05:45:23;1.00;99.90
62555;DHT22;48610;52.144;8.624;2024-01-07T05:48:23;1.00;99.90
62555;DHT22;48610;52.144;8.624;2024-01-07T05:51:24;1.20;99.90
62555;DHT22;48610;52.144;8.624;2024-01-07T05:54:24;1.40;99.90
62555;DHT22;48610;52.144;8.624;2024-01-07T05:57:25;1.30;99.90
62555;DHT22;48610;52.144;8.624;2024-01-07T06:00:25;1.00;99.90
62555;DHT22;48610;52.144;8.624;2024-01-07T06:03:26;0.90;99.90
62555;DHT22;48610;52.144;8.624;2024-01-07T06:06:27;0.70;99.90
62555;DHT22;48610;52.144;8.624;2024-01-07T06:09:27;0.70;99.90
62555;DHT22;48610;52.144;8.624;2024-01-07T06:12:28;0.60;99.90
62555;DHT22;48610;52.144;8.624;2024-01-07T06:15:29;0.90;99.90
62555;DHT22;48610;52.144;8.624;2024-01-07T06:18:29;1.00;99.90
62555;DHT22;48610;52.144;8.624;2024-01-07T06:21:30;0.90;99.90
62555;DHT22;48610;52.144;8.624;2024-01-07T06:24:30;0.80;99.90
62555;DHT22;48610;52.144;8.624;2024-01-07T06:27:31;0.60;99.90
62555;DHT22;48610;52.144;8.624;2024-01-07T06:30:31;0.60;99.90
62555;DHT22;48610;52.144;8.624;2024-01-07T06:33:32;0.40;99.90
62555;DHT22;48610;52.144;8.624;2024-01-07T06:36:32;0.50;99.90
62555;DHT22;48610;52.144;8.624;2024-01-07T06:39:33;0.70;99.90
62555;DHT22;48610;52.144;8.624;2024-01-07T06:42:34;0.70;99.90
62555;DHT22;48610;52.144;8.624;2024-01-07T06:45:35;0.60;99.90
62555;DHT22;48610;52.144;8.624;2024-01-07T06:48:35;0.40;99.90
62555;DHT22;48610;52.144;8.624;2024-01-07T06:51:37;0.50;99.90
62555;DHT22;48610;52.144;8.624;2024-01-07T06:54:38;0.60;99.90
62555;DHT22;48610;52.144;8.624;2024-01-07T06:57:39;1.00;99.90
62555;DHT22;48610;52.144;8.624;2024-01-07T07:00:40;0.60;99.90
62555;DHT22;48610;52.144;8.624;2024-01-07T07:03:40;0.60;99.90
62555;DHT22;48610;52.144;8.624;2024-01-07T07:06:41;0.50;99.90
62555;DHT22;48610;52.144;8.624;2024-01-07T07:09:42;0.60;99.90
62555;DHT22;48610;52.144;8.624;2024-01-07T07:12:42;0.40;99.90
62555;DHT22;48610;52.144;8.624;2024-01-07T07:15:43;0.50;99.90
62555;DHT22;48610;52.144;8.624;2024-01-07T07:18:43;0.60;99.90
62555;DHT22;48610;52.144;8.624;2024-01-07T07:21:44;0.90;99.90
62555;DHT22;48610;52.144;8.624;2024-01-07T07:24:44;0.90;99.90
62555;DHT22;48610;52.144;8.624;2024-01-07T07:27:45;0.90;99.90
62555;DHT22;48610;52.144;8.624;2024-01-07T07:30:45;0.90;99.90
62555;DHT22;48610;52.144;8.624;2024-01-07T07:33:46;0.80;99.90
62555;DHT22;48610;52.144;8.624;2024-01-07T07:36:46;0.80;99.90
62555;DHT22;48610;52.144;8.624;2024-01-07T07:39:47;1.00;99.90
62555;DHT22;48610;52.144;8.624;2024-01-07T07:42:47;1.00;99.90
62555;DHT22;48610;52.144;8.624;2024-01-07T07:45:48;1.20;99.90
62555;DHT22;48610;52.144;8.624;2024-01-07T07:48:49;1.40;99.90
62555;DHT22;48610;52.144;8.624;2024-01-07T07:51:49;1.30;99.90
62555;DHT22;48610;52.144;8.624;2024-01-07T07:54:52;1.40;99.90
62555;DHT22;48610;52.144;8.624;2024-01-07T07:57:52;1.30;99.90
62555;DHT22;48610;52.144;8.624;2024-01-07T08:00:53;1.40;99.90
62555;DHT22;48610;52.144;8.624;2024-01-07T08:03:54;1.30;99.90
62555;DHT22;48610;52.144;8.624;2024-01-07T08:06:54;1.10;99.90
62555;DHT22;48610;52.144;8.624;2024-01-07T08:09:56;1.30;99.90
62555;DHT22;48610;52.144;8.624;2024-01-07T08:12:58;1.40;99.90
62555;DHT22;48610;52.144;8.624;2024-01-07T08:15:58;1.30;99.90
62555;DHT22;48610;52.144;8.624;2024-01-07T08:18:59;1.60;99.90
62555;DHT22;48610;52.144;8.624;2024-01-07T08:22:00;1.40;99.90
62555;DHT22;48610;52.144;8.624;2024-01-07T08:25:00;1.60;99.90
62555;DHT22;48610;52.144;8.624;2024-01-07T08:28:01;1.60;99.90
62555;DHT22;48610;52.144;8.624;2024-01-07T08:31:05;1.20;99.90
62555;DHT22;48610;52.144;8.624;2024-01-07T08:34:05;1.20;99.90
62555;DHT22;48610;52.144;8.624;2024-01-07T08:37:07;1.30;99.90
62555;DHT22;48610;52.144;8.624;2024-01-07T08:40:09;0.90;99.90
62555;DHT22;48610;52.144;8.624;2024-01-07T08:43:09;1.10;99.90
62555;DHT22;48610;52.144;8.624;2024-01-07T08:46:11;1.40;99.90
62555;DHT22;48610;52.144;8.624;2024-01-07T08:49:13;1.20;99.90
62555;DHT22;48610;52.144;8.624;2024-01-07T08:52:14;0.80;99.90
62555;DHT22;48610;52.144;8.624;2024-01-07T08:55:14;0.90;99.90
62555;DHT22;48610;52.144;8.624;2024-01-07T08:58:16;1.20;99.90
62555;DHT22;48610;52.144;8.624;2024-01-07T09:01:17;1.30;99.90
62555;DHT22;48610;52.144;8.624;2024-01-07T09:04:18;1.30;99.90
62555;DHT22;48610;52.144;8.624;2024-01-07T09:07:18;1.30;99.90
62555;DHT22;48610;52.144;8.624;2024-01-07T09:10:19;1.20;99.90
62555;DHT22;48610;52.144;8.624;2024-01-07T09:13:21;1.40;99.90
62555;DHT22;48610;52.144;8.624;2024-01-07T09:16:21;0.70;99.90
62555;DHT22;48610;52.144;8.624;2024-01-07T09:19:22;1.00;99.90
62555;DHT22;48610;52.144;8.624;2024-01-07T09:22:23;1.10;99.90
62555;DHT22;48610;52.144;8.624;2024-01-07T09:25:23;1.30;99.90
62555;DHT22;48610;52.144;8.624;2024-01-07T09:28:24;1.40;99.90
62555;DHT22;48610;52.144;8.624;2024-01-07T09:31:24;1.50;99.90
62555;DHT22;48610;52.144;8.624;2024-01-07T09:34:25;1.50;99.90
62555;DHT22;48610;52.144;8.624;2024-01-07T09:37:26;1.40;99.90
62555;DHT22;48610;52.144;8.624;2024-01-07T09:40:26;1.70;99.90
62555;DHT22;48610;52.144;8.624;2024-01-07T09:43:27;1.50;99.90
62555;DHT22;48610;52.144;8.624;2024-01-07T09:46:29;1.60;99.90
62555;DHT22;48610;52.144;8.624;2024-01-07T09:49:30;1.60;99.90
62555;DHT22;48610;52.144;8.624;2024-01-07T09:52:32;1.40;99.90
62555;DHT22;48610;52.144;8.624;2024-01-07T09:55:45;1.50;99.90
62555;DHT22;48610;52.144;8.624;2024-01-07T09:58:48;1.80;99.90
62555;DHT22;48610;52.144;8.624;2024-01-07T10:01:50;1.40;99.90
62555;DHT22;48610;52.144;8.624;2024-01-07T10:04:51;1.00;99.90
62555;DHT22;48610;52.144;8.624;2024-01-07T10:07:51;1.00;99.90
62555;DHT22;48610;52.144;8.624;2024-01-07T10:10:55;1.00;99.90
62555;DHT22;48610;52.144;8.624;2024-01-07T10:13:57;1.00;99.90
62555;DHT22;48610;52.144;8.624;2024-01-07T10:16:58;1.30;99.90
62555;DHT22;48610;52.144;8.624;2024-01-07T10:19:59;1.20;99.90
62555;DHT22;48610;52.144;8.624;2024-01-07T10:23:03;1.50;99.90
62555;DHT22;48610;52.144;8.624;2024-01-07T10:26:04;1.80;99.90
62555;DHT22;48610;52.144;8.624;2024-01-07T10:29:07;1.80;99.90
62555;DHT22;48610;52.144;8.624;2024-01-07T10:32:08;2.00;99.90
62555;DHT22;48610;52.144;8.624;2024-01-07T10:35:12;2.20;99.90
62555;DHT22;48610;52.144;8.624;2024-01-07T10:38:14;2.30;99.90
62555;DHT22;48610;52.144;8.624;2024-01-07T10:41:20;1.70;99.90
62555;DHT22;48610;52.144;8.624;2024-01-07T10:44:21;1.50;99.90
62555;DHT22;48610;52.144;8.624;2024-01-07T10:47:23;1.40;99.90
62555;DHT22;48610;52.144;8.624;2024-01-07T10:50:26;1.50;99.90
62555;DHT22;48610;52.144;8.624;2024-01-07T10:53:29;1.40;99.90
62555;DHT22;48610;52.144;8.624;2024-01-07T10:56:46;1.40;99.90
62555;DHT22;48610;52.144;8.624;2024-01-07T10:59:50;1.60;99.90
62555;DHT22;48610;52.144;8.624;2024-01-07T11:03:06;1.80;99.90
62555;DHT22;48610;52.144;8.624;2024-01-07T11:06:31;1.50;99.90
62555;DHT22;48610;52.144;8.624;2024-01-07T11:09:51;1.60;99.90
62555;DHT22;48610;52.144;8.624;2024-01-07T11:12:55;1.30;99.90
62555;DHT22;48610;52.144;8.624;2024-01-07T11:15:55;1.60;99.90
62555;DHT22;48610;52.144;8.624;2024-01-07T11:18:56;1.80;99.90
62555;DHT22;48610;52.144;8.624;2024-01-07T11:22:23;1.90;99.90
62555;DHT22;48610;52.144;8.624;2024-01-07T11:25:31;1.90;99.90
62555;DHT22;48610;52.144;8.624;2024-01-07T11:31:50;1.40;99.90
62555;DHT22;48610;52.144;8.624;2024-01-07T11:34:51;1.60;99.90
62555;DHT22;48610;52.144;8.624;2024-01-07T11:37:53;1.40;99.90
62555;DHT22;48610;52.144;8.624;2024-01-07T11:40:55;1.60;99.90
62555;DHT22;48610;52.144;8.624;2024-01-07T11:43:57;1.60;99.90
62555;DHT22;48610;52.144;8.624;2024-01-07T11:47:01;1.40;99.90
62555;DHT22;48610;52.144;8.624;2024-01-07T11:50:02;1.40;99.90
62555;DHT22;48610;52.144;8.624;2024-01-07T11:53:02;1.20;99.90
62555;DHT22;48610;52.144;8.624;2024-01-07T11:56:03;1.40;99.90
62555;DHT22;48610;52.144;8.624;2024-01-07T11:59:05;1.80;99.90
62555;DHT22;48610;52.144;8.624;2024-01-07T12:02:07;2.00;99.90
62555;DHT22;48610;52.144;8.624;2024-01-07T12:05:08;2.20;99.90
62555;DHT22;48610;52.144;8.624;2024-01-07T12:08:08;1.80;99.90
62555;DHT22;48610;52.144;8.624;2024-01-07T12:11:11;1.60;99.90
62555;DHT22;48610;52.144;8.624;2024-01-07T12:14:12;1.80;99.90
62555;DHT22;48610;52.144;8.624;2024-01-07T12:17:13;1.50;99.90
62555;DHT22;48610;52.144;8.624;2024-01-07T12:20:17;1.80;99.90
62555;DHT22;48610;52.144;8.624;2024-01-07T12:23:17;1.60;99.90
62555;DHT22;48610;52.144;8.624;2024-01-07T12:26:18;1.60;99.90
62555;DHT22;48610;52.144;8.624;2024-01-07T12:29:22;1.70;99.90
62555;DHT22;48610;52.144;8.624;2024-01-07T12:32:25;1.80;99.90
62555;DHT22;48610;52.144;8.624;2024-01-07T12:35:26;1.70;99.90
62555;DHT22;48610;52.144;8.624;2024-01-07T12:38:27;1.60;99.90
62555;DHT22;48610;52.144;8.624;2024-01-07T12:41:28;1.30;99.90
62555;DHT22;48610;52.144;8.624;2024-01-07T12:44:29;1.10;99.90
62555;DHT22;48610;52.144;8.624;2024-01-07T12:47:30;1.10;99.90
62555;DHT22;48610;52.144;8.624;2024-01-07T12:50:30;1.40;99.90
62555;DHT22;48610;52.144;8.624;2024-01-07T12:53:31;1.80;99.90
62555;DHT22;48610;52.144;8.624;2024-01-07T12:56:32;1.90;99.90
62555;DHT22;48610;52.144;8.624;2024-01-07T12:59:33;1.70;99.90
62555;DHT22;48610;52.144;8.624;2024-01-07T13:02:34;1.60;99.90
62555;DHT22;48610;52.144;8.624;2024-01-07T13:05:35;1.80;99.90
62555;DHT22;48610;52.144;8.624;2024-01-07T13:08:35;1.60;99.90
62555;DHT22;48610;52.144;8.624;2024-01-07T13:11:36;1.80;99.90
62555;DHT22;48610;52.144;8.624;2024-01-07T13:14:36;1.70;99.90
62555;DHT22;48610;52.144;8.624;2024-01-07T13:17:37;2.00;99.90
62555;DHT22;48610;52.144;8.624;2024-01-07T13:20:38;1.70;99.90
62555;DHT22;48610;52.144;8.624;2024-01-07T13:23:41;1.40;99.90
62555;DHT22;48610;52.144;8.624;2024-01-07T13:26:44;1.50;99.90
62555;DHT22;48610;52.144;8.624;2024-01-07T13:29:44;1.40;99.90
62555;DHT22;48610;52.144;8.624;2024-01-07T13:32:47;1.30;99.90
62555;DHT22;48610;52.144;8.624;2024-01-07T13:35:49;1.10;99.90
62555;DHT22;48610;52.144;8.624;2024-01-07T13:38:50;1.00;99.90
62555;DHT22;48610;52.144;8.624;2024-01-07T13:41:51;1.10;99.90
62555;DHT22;48610;52.144;8.624;2024-01-07T13:44:53;1.00;99.90
62555;DHT22;48610;52.144;8.624;2024-01-07T13:47:54;1.00;99.90
62555;DHT22;48610;52.144;8.624;2024-01-07T13:50:55;1.10;99.90
62555;DHT22;48610;52.144;8.624;2024-01-07T13:53:57;1.20;99.90
62555;DHT22;48610;52.144;8.624;2024-01-07T13:56:57;1.10;99.90
62555;DHT22;48610;52.144;8.624;2024-01-07T13:59:59;1.20;99.90
62555;DHT22;48610;52.144;8.624;2024-01-07T14:02:59;1.30;99.90
62555;DHT22;48610;52.144;8.624;2024-01-07T14:06:00;1.20;99.90
62555;DHT22;48610;52.144;8.624;2024-01-07T14:09:01;1.50;99.90
62555;DHT22;48610;52.144;8.624;2024-01-07T14:12:03;1.20;99.90
62555;DHT22;48610;52.144;8.624;2024-01-07T14:15:04;1.20;99.90
62555;DHT22;48610;52.144;8.624;2024-01-07T14:18:05;1.20;99.90
62555;DHT22;48610;52.144;8.624;2024-01-07T14:21:05;1.50;99.90
62555;DHT22;48610;52.144;8.624;2024-01-07T14:24:06;1.30;99.90
62555;DHT22;48610;52.144;8.624;2024-01-07T14:27:07;1.10;99.90
62555;DHT22;48610;52.144;8.624;2024-01-07T14:30:07;1.00;99.90
62555;DHT22;48610;52.144;8.624;2024-01-07T14:33:08;1.10;99.90
62555;DHT22;48610;52.144;8.624;2024-01-07T14:36:10;1.20;99.90
62555;DHT22;48610;52.144;8.624;2024-01-07T14:39:16;1.20;99.90
62555;DHT22;48610;52.144;8.624;2024-01-07T14:42:17;1.30;99.90
62555;DHT22;48610;52.144;8.624;2024-01-07T14:45:19;1.20;99.90
62555;DHT22;48610;52.144;8.624;2024-01-07T14:48:19;1.20;99.90
62555;DHT22;48610;52.144;8.624;2024-01-07T14:51:20;1.10;99.90
62555;DHT22;48610;52.144;8.624;2024-01-07T14:54:21;1.00;99.90
62555;DHT22;48610;52.144;8.624;2024-01-07T14:57:21;0.90;99.90
62555;DHT22;48610;52.144;8.624;2024-01-07T15:00:22;0.80;99.90
62555;DHT22;48610;52.144;8.624;2024-01-07T15:03:24;0.90;99.90
62555;DHT22;48610;52.144;8.624;2024-01-07T15:06:25;1.10;99.90
62555;DHT22;48610;52.144;8.624;2024-01-07T15:09:26;1.00;99.90
62555;DHT22;48610;52.144;8.624;2024-01-07T15:12:27;1.10;99.90
62555;DHT22;48610;52.144;8.624;2024-01-07T15:15:36;0.80;99.90
62555;DHT22;48610;52.144;8.624;2024-01-07T15:18:37;0.60;99.90
62555;DHT22;48610;52.144;8.624;2024-01-07T15:21:37;0.60;99.90
62555;DHT22;48610;52.144;8.624;2024-01-07T15:24:38;0.60;99.90
62555;DHT22;48610;52.144;8.624;2024-01-07T15:27:39;0.50;99.90
62555;DHT22;48610;52.144;8.624;2024-01-07T15:30:39;0.80;99.90
62555;DHT22;48610;52.144;8.624;2024-01-07T15:33:40;0.90;99.90
62555;DHT22;48610;52.144;8.624;2024-01-07T15:36:40;0.80;99.90
62555;DHT22;48610;52.144;8.624;2024-01-07T15:39:42;0.90;99.90
62555;DHT22;48610;52.144;8.624;2024-01-07T15:42:42;1.00;99.90
62555;DHT22;48610;52.144;8.624;2024-01-07T15:45:43;0.80;99.90
62555;DHT22;48610;52.144;8.624;2024-01-07T15:48:43;0.60;99.90
62555;DHT22;48610;52.144;8.624;2024-01-07T15:51:44;0.50;99.90
62555;DHT22;48610;52.144;8.624;2024-01-07T15:54:44;0.60;99.90
62555;DHT22;48610;52.144;8.624;2024-01-07T15:57:45;0.70;99.90
62555;DHT22;48610;52.144;8.624;2024-01-07T16:00:45;0.50;99.90
62555;DHT22;48610;52.144;8.624;2024-01-07T16:03:46;0.80;99.90
62555;DHT22;48610;52.144;8.624;2024-01-07T16:06:46;0.70;99.90
62555;DHT22;48610;52.144;8.624;2024-01-07T16:09:49;0.50;99.90
62555;DHT22;48610;52.144;8.624;2024-01-07T16:12:49;0.50;99.90
62555;DHT22;48610;52.144;8.624;2024-01-07T16:15:50;0.80;99.90
62555;DHT22;48610;52.144;8.624;2024-01-07T16:18:50;0.70;99.90
62555;DHT22;48610;52.144;8.624;2024-01-07T16:21:51;0.80;99.90
62555;DHT22;48610;52.144;8.624;2024-01-07T16:24:51;1.00;99.90
62555;DHT22;48610;52.144;8.624;2024-01-07T16:27:52;1.00;99.90
62555;DHT22;48610;52.144;8.624;2024-01-07T16:30:53;0.90;99.90
62555;DHT22;48610;52.144;8.624;2024-01-07T16:33:55;1.00;99.90
62555;DHT22;48610;52.144;8.624;2024-01-07T16:36:55;1.20;99.90
62555;DHT22;48610;52.144;8.624;2024-01-07T16:39:56;1.30;99.90
62555;DHT22;48610;52.144;8.624;2024-01-07T16:42:56;1.60;99.90
62555;DHT22;48610;52.144;8.624;2024-01-07T16:45:59;1.50;99.90
62555;DHT22;48610;52.144;8.624;2024-01-07T16:49:00;1.50;99.90
62555;DHT22;48610;52.144;8.624;2024-01-07T16:52:00;1.60;99.90
62555;DHT22;48610;52.144;8.624;2024-01-07T16:55:01;1.20;99.90
62555;DHT22;48610;52.144;8.624;2024-01-07T16:58:02;1.10;99.90
62555;DHT22;48610;52.144;8.624;2024-01-07T17:01:02;1.20;99.90
62555;DHT22;48610;52.144;8.624;2024-01-07T17:04:03;1.20;99.90
62555;DHT22;48610;52.144;8.624;2024-01-07T17:07:03;1.10;99.90
62555;DHT22;48610;52.144;8.624;2024-01-07T17:10:05;1.30;99.90
62555;DHT22;48610;52.144;8.624;2024-01-07T17:13:08;1.60;99.90
62555;DHT22;48610;52.144;8.624;2024-01-07T17:16:08;1.20;99.90
62555;DHT22;48610;52.144;8.624;2024-01-07T17:19:09;0.90;99.90
62555;DHT22;48610;52.144;8.624;2024-01-07T17:22:09;0.80;99.90
62555;DHT22;48610;52.144;8.624;2024-01-07T17:25:10;0.70;99.90
62555;DHT22;48610;52.144;8.624;2024-01-07T17:28:11;0.60;99.90
62555;DHT22;48610;52.144;8.624;2024-01-07T17:31:11;0.90;99.90
62555;DHT22;48610;52.144;8.624;2024-01-07T17:34:12;0.70;99.90
62555;DHT22;48610;52.144;8.624;2024-01-07T17:37:12;0.70;99.90
62555;DHT22;48610;52.144;8.624;2024-01-07T17:40:13;0.40;99.90
62555;DHT22;48610;52.144;8.624;2024-01-07T17:43:14;0.50;99.90
62555;DHT22;48610;52.144;8.624;2024-01-07T17:46:15;1.00;99.90
62555;DHT22;48610;52.144;8.624;2024-01-07T17:49:15;0.80;99.90
62555;DHT22;48610;52.144;8.624;2024-01-07T17:52:16;0.90;99.90
62555;DHT22;48610;52.144;8.624;2024-01-07T17:55:16;1.00;99.90
62555;DHT22;48610;52.144;8.624;2024-01-07T17:58:18;0.80;99.90
62555;DHT22;48610;52.144;8.624;2024-01-07T18:01:19;0.70;99.90
62555;DHT22;48610;52.144;8.624;2024-01-07T18:04:20;0.50;99.90
62555;DHT22;48610;52.144;8.624;2024-01-07T18:07:21;0.50;99.90
62555;DHT22;48610;52.144;8.624;2024-01-07T18:10:22;0.30;99.90
62555;DHT22;48610;52.144;8.624;2024-01-07T18:13:22;0.80;99.90
62555;DHT22;48610;52.144;8.624;2024-01-07T18:16:25;0.80;99.90
62555;DHT22;48610;52.144;8.624;2024-01-07T18:19:25;1.00;99.90
62555;DHT22;48610;52.144;8.624;2024-01-07T18:22:26;0.30;99.90
62555;DHT22;48610;52.144;8.624;2024-01-07T18:25:26;0.20;99.90
62555;DHT22;48610;52.144;8.624;2024-01-07T18:28:27;-0.10;99.90
62555;DHT22;48610;52.144;8.624;2024-01-07T18:31:27;-0.20;99.90
62555;DHT22;48610;52.144;8.624;2024-01-07T18:34:29;-0.40;99.90
62555;DHT22;48610;52.144;8.624;2024-01-07T18:37:30;-0.30;99.90
62555;DHT22;48610;52.144;8.624;2024-01-07T18:40:31;-0.10;99.90
62555;DHT22;48610;52.144;8.624;2024-01-07T18:43:31;-0.10;99.90
62555;DHT22;48610;52.144;8.624;2024-01-07T18:46:32;0.30;99.90
62555;DHT22;48610;52.144;8.624;2024-01-07T18:49:32;0.10;99.90
62555;DHT22;48610;52.144;8.624;2024-01-07T18:52:33;0.00;99.90
62555;DHT22;48610;52.144;8.624;2024-01-07T18:55:33;0.30;99.90
62555;DHT22;48610;52.144;8.624;2024-01-07T18:58:36;-0.10;99.90
62555;DHT22;48610;52.144;8.624;2024-01-07T19:01:39;-0.10;99.90
62555;DHT22;48610;52.144;8.624;2024-01-07T19:04:40;-0.40;99.90
62555;DHT22;48610;52.144;8.624;2024-01-07T19:07:40;-0.40;99.90
62555;DHT22;48610;52.144;8.624;2024-01-07T19:10:41;-0.60;99.90
62555;DHT22;48610;52.144;8.624;2024-01-07T19:13:43;-0.60;99.90
62555;DHT22;48610;52.144;8.624;2024-01-07T19:16:44;-0.30;99.90
62555;DHT22;48610;52.144;8.624;2024-01-07T19:19:44;-0.40;99.90
62555;DHT22;48610;52.144;8.624;2024-01-07T19:22:45;-0.60;99.90
62555;DHT22;48610;52.144;8.624;2024-01-07T19:25:46;-0.50;99.90